Time;durP1;ratioP1;P1;durP2;ratioP2;P2;SDS_P1;SDS_P2;PMS_P1;PMS_P2;Temp;Humidity;BMP_temperature;BMP_pressure;BME280_temperature;BME280_humidity;BME280_pressure;Samples;Min_cycle;Max_cycle;Signal;HPM_P1;HPM_P2
2022/08/15 00:01:35;;;;;;;10.43;6.53;;;;;;;23.62;42.85;99850.44;5053207;28;20083;-71
2022/08/15 00:04:11;;;;;;;16.10;6.43;;;;;;;23.60;42.78;99850.84;5053021;28;20059;-70
2022/08/15 00:06:58;;;;;;;11.48;6.35;;;;;;;23.62;42.83;99853.28;5053362;28;20407;-71
2022/08/15 00:09:27;;;;;;;9.65;6.43;;;;;;;23.64;42.79;99859.34;5053868;28;20080;-71
2022/08/15 00:12:14;;;;;;;19.83;6.80;;;;;;;23.63;42.83;99854.91;5052884;28;20076;-71
2022/08/15 00:15:11;;;;;;;35.58;17.92;;;;;;;23.64;42.74;99859.34;5052877;28;20546;-71
2022/08/15 00:17:40;;;;;;;14.32;7.65;;;;;;;23.65;42.86;99861.78;5052463;28;20055;-72
2022/08/15 00:20:16;;;;;;;12.32;6.50;;;;;;;23.67;42.93;99856.50;5052834;28;20582;-71
2022/08/15 00:22:59;;;;;;;10.45;6.22;;;;;;;23.65;42.81;99855.31;5052525;28;20041;-72
2022/08/15 00:25:29;;;;;;;12.00;6.63;;;;;;;23.65;43.12;99855.31;5052562;28;20041;-73
2022/08/15 00:28:01;;;;;;;12.65;6.35;;;;;;;23.57;43.22;99862.22;5052674;28;20460;-71
2022/08/15 00:30:31;;;;;;;10.88;6.10;;;;;;;23.47;43.69;99861.03;5052695;28;20051;-71
2022/08/15 00:33:18;;;;;;;15.55;6.00;;;;;;;23.39;44.16;99863.09;5052661;28;20045;-71
2022/08/15 00:35:53;;;;;;;14.60;6.97;;;;;;;23.31;44.50;99864.34;5052298;28;20507;-71
2022/08/15 00:38:31;;;;;;;10.07;5.90;;;;;;;23.27;44.65;99863.53;5052767;28;20064;-70
2022/08/15 00:44:41;;;;;;;17.67;6.95;;;;;;;23.18;45.13;99865.97;4991132;28;20533;-72
2022/08/15 00:47:30;;;;;;;8.90;6.10;;;;;;;23.08;45.36;99863.97;4993271;28;20058;-71
2022/08/15 00:50:07;;;;;;;11.27;6.30;;;;;;;23.08;45.53;99863.16;5010668;28;20054;-71
2022/08/15 00:52:54;;;;;;;12.45;6.78;;;;;;;22.99;45.75;99869.25;5010452;28;20057;-71
2022/08/15 00:55:21;;;;;;;11.05;6.85;;;;;;;22.97;46.01;99865.19;5010404;28;20088;-72
2022/08/15 00:57:53;;;;;;;11.35;6.93;;;;;;;22.82;46.48;99863.59;5010493;28;20104;-71
2022/08/15 01:00:31;;;;;;;10.32;6.75;;;;;;;22.69;46.83;99871.72;5010721;28;20054;-71
2022/08/15 01:03:13;;;;;;;20.98;7.88;;;;;;;22.60;47.31;99874.16;5010750;28;20141;-71
2022/08/15 01:05:46;;;;;;;13.98;7.78;;;;;;;22.51;47.42;99875.75;5012035;28;20445;-71
2022/08/15 01:08:20;;;;;;;16.50;8.43;;;;;;;22.49;47.87;99873.31;5014409;28;20077;-71
2022/08/15 01:11:08;;;;;;;12.77;7.90;;;;;;;22.44;47.94;99879.38;5014272;28;20088;-71
2022/08/15 01:13:37;;;;;;;15.50;8.77;;;;;;;22.41;47.89;99885.06;5014183;28;20080;-71
2022/08/15 01:16:26;;;;;;;16.70;10.35;;;;;;;22.46;48.04;99882.63;5076270;28;20385;-70
2022/08/15 01:19:18;;;;;;;15.02;9.30;;;;;;;22.51;47.75;99885.09;5075945;28;20063;-71
2022/08/15 01:22:04;;;;;;;19.38;9.07;;;;;;;22.53;47.89;99885.47;5076114;28;20110;-71
2022/08/15 01:24:47;;;;;;;14.05;8.80;;;;;;;22.53;47.94;99879.81;5076325;28;20048;-70
2022/08/15 01:27:59;;;;;;;17.20;9.75;;;;;;;22.53;48.11;99884.69;5076135;28;20423;-70
2022/08/15 01:30:31;;;;;;;21.88;8.70;;;;;;;22.51;48.16;99875.75;5075578;28;20056;-70
2022/08/15 01:33:19;;;;;;;12.73;8.88;;;;;;;22.51;48.00;99881.44;5075792;28;20511;-70
2022/08/15 01:35:49;;;;;;;19.30;8.40;;;;;;;22.50;48.28;99885.47;5075966;28;20059;-70
2022/08/15 01:38:20;;;;;;;13.52;9.10;;;;;;;22.43;48.49;99891.94;5075574;28;20060;-71
2022/08/15 01:41:26;;;;;;;15.13;9.35;;;;;;;22.38;48.56;99883.81;5075477;28;20052;-71
2022/08/15 01:44:13;;;;;;;13.48;8.93;;;;;;;22.37;48.78;99887.88;5075624;28;20132;-71
2022/08/15 01:47:19;;;;;;;15.43;8.60;;;;;;;22.17;49.23;99892.28;5063550;28;20044;-70
2022/08/15 01:49:55;;;;;;;19.85;8.52;;;;;;;22.13;49.48;99899.97;5055694;28;20059;-71
2022/08/15 01:52:33;;;;;;;17.98;9.32;;;;;;;22.07;49.80;99893.09;5055462;28;20052;-71
2022/08/15 01:55:30;;;;;;;17.92;9.70;;;;;;;22.04;49.83;99896.72;5055402;28;20048;-71
2022/08/15 01:58:00;;;;;;;13.70;8.60;;;;;;;22.00;50.07;99890.25;5055871;28;20052;-71
2022/08/15 02:00:27;;;;;;;19.65;10.32;;;;;;;21.97;50.22;99893.06;5055491;28;20518;-71
2022/08/15 02:02:55;;;;;;;20.77;9.90;;;;;;;22.02;50.24;99898.34;5055291;28;20417;-71
2022/08/15 02:05:23;;;;;;;18.33;11.00;;;;;;;22.09;50.00;99890.66;5054986;28;20044;-72
2022/08/15 02:07:50;;;;;;;21.52;10.90;;;;;;;22.13;50.21;99899.16;5055157;28;20136;-72
2022/08/15 02:10:37;;;;;;;19.83;10.07;;;;;;;22.08;50.30;99897.53;5055213;28;20057;-72
2022/08/15 02:13:05;;;;;;;15.30;9.68;;;;;;;22.03;50.33;99897.13;5054927;28;20530;-72
2022/08/15 02:15:41;;;;;;;17.30;9.35;;;;;;;21.98;50.63;99900.34;5068357;28;20076;-72
2022/08/15 02:18:10;;;;;;;21.08;9.50;;;;;;;21.98;50.70;99906.00;5074517;28;20052;-71
2022/08/15 02:20:45;;;;;;;18.75;10.88;;;;;;;21.98;50.67;99908.81;5075204;28;20079;-71
2022/08/15 02:23:13;;;;;;;17.35;11.05;;;;;;;22.01;50.73;99905.19;5074772;28;20534;-71
2022/08/15 02:25:45;;;;;;;19.55;10.48;;;;;;;22.00;50.70;99915.75;5074792;28;20052;-70
2022/08/15 02:28:13;;;;;;;21.33;11.20;;;;;;;22.00;50.98;99910.06;5075184;28;20040;-71
2022/08/15 02:31:00;;;;;;;18.50;10.85;;;;;;;22.01;50.70;99906.03;5074945;28;20044;-71
2022/08/15 02:33:28;;;;;;;18.80;10.63;;;;;;;22.01;50.73;99908.84;5075011;28;20055;-71
2022/08/15 02:36:02;;;;;;;19.00;11.45;;;;;;;22.04;50.86;99907.22;5074666;28;20045;-70
2022/08/15 02:38:31;;;;;;;18.60;11.13;;;;;;;22.04;50.83;99913.72;5074435;28;20064;-71
2022/08/15 02:41:19;;;;;;;21.77;12.35;;;;;;;22.00;51.09;99918.56;5074735;28;20113;-71
2022/08/15 02:43:49;;;;;;;21.30;11.20;;;;;;;21.97;51.13;99910.88;5074586;28;20548;-71
2022/08/15 02:46:19;;;;;;;26.38;10.95;;;;;;;22.01;50.94;99919.38;5074558;28;20143;-71
2022/08/15 02:49:01;;;;;;;17.48;11.40;;;;;;;22.06;50.96;99916.97;5074121;28;20056;-71
2022/08/15 02:51:30;;;;;;;17.90;12.65;;;;;;;22.09;50.89;99926.69;5074540;28;20040;-71
2022/08/15 02:54:14;;;;;;;24.63;11.68;;;;;;;22.12;50.93;99911.72;5062449;28;20148;-72
2022/08/15 02:57:01;;;;;;;20.95;11.20;;;;;;;22.14;50.93;99915.75;5054327;28;20045;-71
2022/08/15 02:59:29;;;;;;;22.70;12.25;;;;;;;22.18;50.76;99916.59;5054065;28;20091;-71
2022/08/15 03:01:57;;;;;;;17.52;12.00;;;;;;;22.23;50.86;99924.69;5037149;28;20049;-71
2022/08/15 03:04:25;;;;;;;22.52;12.10;;;;;;;22.25;50.83;99925.09;5060962;28;20056;-71
2022/08/15 03:06:56;;;;;;;23.35;12.05;;;;;;;22.25;51.08;99929.97;5073815;28;20049;-71
2022/08/15 03:09:26;;;;;;;15.93;12.60;;;;;;;22.23;51.19;99927.53;5073758;28;20142;-70
2022/08/15 03:12:03;;;;;;;21.23;13.45;;;;;;;22.25;51.00;99930.78;5074230;28;20582;-70
2022/08/15 03:14:51;;;;;;;25.17;11.95;;;;;;;22.22;51.33;99923.06;5074090;28;20048;-71
2022/08/15 03:17:18;;;;;;;25.42;12.38;;;;;;;22.28;51.09;99932.81;5073879;28;20065;-71
2022/08/15 03:19:45;;;;;;;28.58;13.38;;;;;;;22.23;51.49;99924.69;5074275;28;20052;-68
2022/08/15 03:22:13;;;;;;;22.40;13.77;;;;;;;22.17;51.61;99923.47;5073529;28;20507;-70
2022/08/15 03:25:00;;;;;;;22.25;13.40;;;;;;;22.20;51.60;99933.19;5072668;28;20044;-71
2022/08/15 03:27:30;;;;;;;23.38;13.20;;;;;;;22.24;51.47;99929.16;5053698;28;20099;-71
2022/08/15 03:30:00;;;;;;;22.80;13.32;;;;;;;22.33;51.29;99931.59;5052779;28;20460;-71
2022/08/15 03:32:29;;;;;;;25.58;13.02;;;;;;;22.42;51.24;99924.34;5053643;28;20459;-71
2022/08/15 03:35:04;;;;;;;21.48;14.45;;;;;;;22.53;51.15;99930.06;5053659;28;20415;-71
2022/08/15 03:37:36;;;;;;;22.92;13.90;;;;;;;22.53;51.19;99927.22;5053195;28;20053;-71
2022/08/15 03:40:13;;;;;;;29.02;14.65;;;;;;;22.53;51.27;99922.34;5053797;28;20127;-71
2022/08/15 03:43:04;;;;;;;24.25;14.10;;;;;;;22.52;51.33;99929.25;5053738;28;20055;-71
2022/08/15 03:45:51;;;;;;;21.85;13.43;;;;;;;22.54;51.44;99926.00;5053452;28;20083;-70
2022/08/15 03:48:21;;;;;;;21.83;13.48;;;;;;;22.62;51.29;99931.25;5052975;28;20576;-71
2022/08/15 03:50:52;;;;;;;22.52;13.10;;;;;;;22.68;51.47;99938.16;5053305;28;20515;-71
2022/08/15 03:53:27;;;;;;;22.58;13.63;;;;;;;22.71;51.37;99936.56;5057403;28;20098;-71
2022/08/15 03:55:59;;;;;;;25.52;14.07;;;;;;;22.76;51.40;99939.78;5072889;28;20059;-71
2022/08/15 03:58:28;;;;;;;26.15;13.75;;;;;;;22.81;51.16;99936.56;5073022;28;20411;-71
2022/08/15 04:01:06;;;;;;;24.00;13.60;;;;;;;22.86;51.11;99932.50;5073320;28;20079;-70
2022/08/15 04:03:34;;;;;;;22.38;13.93;;;;;;;22.89;51.22;99938.16;5073201;28;20518;-71
2022/08/15 04:06:06;;;;;;;21.17;13.27;;;;;;;22.95;51.20;99941.41;5073786;28;20055;-69
2022/08/15 04:08:45;;;;;;;20.10;14.27;;;;;;;23.02;50.99;99935.72;5073022;28;20056;-69
2022/08/15 04:11:32;;;;;;;23.20;15.18;;;;;;;23.09;50.73;99942.22;5073176;28;20054;-69
2022/08/15 04:14:06;;;;;;;20.40;14.75;;;;;;;23.15;50.81;99940.59;5072962;28;20082;-69
2022/08/15 04:16:59;;;;;;;21.98;14.68;;;;;;;23.19;50.83;99941.41;5052941;28;20040;-69
2022/08/15 04:19:43;;;;;;;25.55;14.48;;;;;;;23.20;50.64;99943.03;5052956;28;20484;-69
2022/08/15 04:22:16;;;;;;;29.58;14.88;;;;;;;23.30;50.58;99930.06;5052830;28;20048;-68
2022/08/15 04:25:11;;;;;;;27.88;14.13;;;;;;;23.51;50.25;99937.72;5056308;28;20511;-70
2022/08/15 04:27:54;;;;;;;26.30;13.98;;;;;;;23.74;49.56;99938.84;5072770;28;20051;-70
2022/08/15 04:30:26;;;;;;;21.60;13.40;;;;;;;23.95;49.52;99926.59;5072849;28;20068;-70
2022/08/15 04:33:04;;;;;;;21.83;12.70;;;;;;;24.07;49.26;99935.50;5072786;28;20053;-70
2022/08/15 04:36:04;;;;;;;20.95;12.05;;;;;;;24.13;48.94;99933.81;5072512;28;20102;-71
2022/08/15 04:38:32;;;;;;;23.58;11.60;;;;;;;24.20;48.77;99933.00;5072237;28;20063;-71
2022/08/15 04:41:01;;;;;;;17.95;11.70;;;;;;;24.30;48.19;99934.94;5072175;28;20056;-70
2022/08/15 04:43:48;;;;;;;16.80;11.17;;;;;;;24.25;48.53;99935.41;5072359;28;20090;-71
2022/08/15 04:46:19;;;;;;;22.67;10.75;;;;;;;24.23;48.30;99923.63;5072532;28;20569;-71
2022/08/15 04:48:52;;;;;;;19.80;10.32;;;;;;;24.26;48.56;99934.19;5072187;28;20084;-71
2022/08/15 04:51:19;;;;;;;17.77;10.80;;;;;;;24.31;48.17;99939.44;5072365;28;20410;-71
2022/08/15 04:54:00;;;;;;;17.65;10.63;;;;;;;24.24;47.89;99928.91;5072363;28;20052;-71
2022/08/15 04:56:28;;;;;;;14.95;10.15;;;;;;;24.26;47.89;99946.38;5064609;28;20049;-71
2022/08/15 04:59:15;;;;;;;25.10;10.70;;;;;;;24.20;47.54;99933.81;5052157;28;20056;-69
2022/08/15 05:02:01;;;;;;;15.60;10.18;;;;;;;24.21;47.50;99934.59;5060405;28;20052;-70
2022/08/15 05:04:47;;;;;;;17.98;10.30;;;;;;;24.21;47.33;99938.25;5072471;28;20123;-70
2022/08/15 05:07:16;;;;;;;16.83;9.57;;;;;;;24.24;47.27;99933.78;5072048;28;20093;-70
2022/08/15 05:09:44;;;;;;;20.58;11.45;;;;;;;24.30;47.03;99937.78;5072249;28;20139;-70
2022/08/15 05:12:27;;;;;;;23.70;11.98;;;;;;;24.37;47.21;99937.78;5072120;28;20052;-71
2022/08/15 05:15:00;;;;;;;21.23;11.95;;;;;;;24.42;46.94;99918.22;5072135;28;20044;-71
2022/08/15 05:17:28;;;;;;;26.27;11.67;;;;;;;24.53;46.98;99936.03;5072026;28;20044;-70
2022/08/15 05:20:18;;;;;;;20.70;11.70;;;;;;;24.71;46.58;99924.56;5072111;28;20461;-71
2022/08/15 05:23:03;;;;;;;20.88;11.73;;;;;;;24.81;46.35;99923.69;5054216;28;20419;-71
2022/08/15 05:25:35;;;;;;;28.80;13.07;;;;;;;24.86;45.98;99931.75;5071994;28;20053;-71
2022/08/15 05:28:09;;;;;;;28.30;14.05;;;;;;;24.87;45.62;99936.22;5072124;28;20442;-71
2022/08/15 05:30:58;;;;;;;27.42;13.98;;;;;;;24.94;45.81;99934.13;5072278;28;20048;-70
2022/08/15 05:33:33;;;;;;;25.02;11.98;;;;;;;25.06;45.57;99936.47;5071985;28;20048;-70
2022/08/15 05:36:20;;;;;;;25.55;16.05;;;;;;;25.14;45.52;99934.38;5072323;28;20057;-70
2022/08/15 05:39:11;;;;;;;29.70;15.25;;;;;;;25.29;45.19;99924.44;5053526;28;20069;-71
2022/08/15 05:42:03;;;;;;;34.50;14.82;;;;;;;25.55;44.48;99928.69;5072128;28;20063;-71
2022/08/15 05:44:54;;;;;;;39.20;21.85;;;;;;;25.74;44.04;99930.88;5071934;28;20048;-71
2022/08/15 05:47:36;;;;;;;43.80;22.00;;;;;;;25.90;43.18;99923.34;5072088;28;20052;-71
2022/08/15 05:50:30;;;;;;;35.75;19.95;;;;;;;26.73;41.64;99928.34;5071807;28;20060;-71
2022/08/15 05:53:16;;;;;;;31.70;19.30;;;;;;;29.07;37.05;99921.88;5073508;28;20048;-71
2022/08/15 05:55:54;;;;;;;37.28;20.48;;;;;;;30.40;34.52;99920.19;5075794;28;20568;-70
2022/08/15 05:58:50;;;;;;;33.88;18.50;;;;;;;31.71;31.49;99926.03;5074978;28;20036;-71
2022/08/15 06:01:33;;;;;;;25.67;16.35;;;;;;;32.71;29.65;99922.56;5075286;28;20462;-74
2022/08/15 06:04:06;;;;;;;22.33;16.30;;;;;;;32.22;30.37;99913.00;5057479;28;20047;-70
2022/08/15 06:06:55;;;;;;;23.40;16.38;;;;;;;30.93;32.44;99912.75;5075248;28;20492;-71
2022/08/15 06:09:46;;;;;;;28.95;15.75;;;;;;;30.65;32.70;99910.78;5074951;28;20098;-71
2022/08/15 06:12:25;;;;;;;28.20;16.05;;;;;;;30.29;33.16;99910.28;5075156;28;20040;-70
2022/08/15 06:15:02;;;;;;;26.13;18.08;;;;;;;29.71;33.42;99921.00;5056950;28;20121;-70
2022/08/15 06:17:54;;;;;;;30.20;16.88;;;;;;;28.74;34.28;99928.06;5057122;28;20070;-70
2022/08/15 06:20:29;;;;;;;28.13;16.73;;;;;;;28.67;34.49;99922.47;5075537;28;20058;-70
2022/08/15 06:23:49;;;;;;;26.90;16.10;;;;;;;29.21;33.56;99924.41;5075277;28;20483;-71
2022/08/15 06:26:30;;;;;;;32.38;17.80;;;;;;;28.96;34.22;99918.47;5060384;28;20047;-71
2022/08/15 06:29:35;;;;;;;25.00;15.18;;;;;;;29.56;32.77;99917.72;5054630;28;20079;-71
2022/08/15 06:32:12;;;;;;;26.95;15.77;;;;;;;29.40;32.75;99914.06;5055101;28;20049;-71
2022/08/15 06:34:56;;;;;;;28.35;16.77;;;;;;;28.85;33.10;99928.56;5054609;28;20045;-71
2022/08/15 06:37:42;;;;;;;31.90;16.00;;;;;;;28.36;33.65;99931.34;5054350;28;20044;-70
2022/08/15 06:40:45;;;;;;;22.92;15.05;;;;;;;28.34;33.63;99930.19;5054389;28;20057;-70
2022/08/15 06:43:18;;;;;;;23.08;14.00;;;;;;;28.91;33.10;99935.38;5054153;28;20045;-70
2022/08/15 06:45:49;;;;;;;21.48;14.30;;;;;;;29.41;32.00;99939.44;5054469;28;20472;-71
2022/08/15 06:48:23;;;;;;;19.77;13.07;;;;;;;29.89;30.91;99936.47;5054621;28;20041;-70
2022/08/15 06:51:12;;;;;;;20.02;10.93;;;;;;;30.21;30.13;99940.47;5054518;28;20044;-69
2022/08/15 06:53:53;;;;;;;;;;;;;;;30.09;29.94;99936.28;5064228;28;20068;-73
2022/08/15 06:56:38;;;;;;;29.80;10.20;;;;;;;29.48;30.78;99933.50;5074124;28;19930;-70
2022/08/15 06:59:26;;;;;;;17.17;8.77;;;;;;;29.09;31.29;99945.19;5054166;28;20044;-73
2022/08/15 07:02:15;;;;;;;11.32;5.72;;;;;;;28.56;31.23;99939.91;5054310;28;20060;-70
2022/08/15 07:04:55;;;;;;;8.15;4.43;;;;;;;28.35;31.11;99944.03;5053645;28;20055;-71
2022/08/15 07:07:58;;;;;;;15.15;4.55;;;;;;;28.64;30.29;99938.50;5053931;28;20055;-70
2022/08/15 07:10:39;;;;;;;8.60;4.45;;;;;;;29.44;28.97;99935.66;4953987;29;20055;-70
2022/08/15 07:13:20;;;;;;;11.07;4.57;;;;;;;29.67;29.13;99938.34;4953502;29;20159;-70
2022/08/15 07:16:26;;;;;;;10.35;4.63;;;;;;;29.68;28.87;99942.81;4967873;28;20053;-70
2022/08/15 07:18:59;;;;;;;8.20;5.10;;;;;;;29.65;29.16;99943.72;4952132;28;20159;-70
2022/08/15 07:21:26;;;;;;;13.07;5.65;;;;;;;29.62;29.58;99933.13;4972885;28;20055;-74
2022/08/15 07:24:15;;;;;;;10.10;4.35;;;;;;;32.26;26.34;99935.91;4972592;28;20102;-75
2022/08/15 07:27:14;;;;;;;12.88;5.00;;;;;;;38.50;19.25;99943.28;4972937;28;20086;-74
2022/08/15 07:29:45;;;;;;;12.00;6.03;;;;;;;41.81;16.30;99943.59;4956743;28;20054;-74
2022/08/15 07:32:40;;;;;;;10.02;6.07;;;;;;;43.95;14.05;99949.88;4973324;28;20070;-75
2022/08/15 07:35:13;;;;;;;6.65;4.40;;;;;;;45.03;13.39;99938.41;4972636;28;20054;-72
2022/08/15 07:37:51;;;;;;;6.97;4.10;;;;;;;46.85;11.53;99955.16;4972417;28;20066;-71
2022/08/15 07:40:23;;;;;;;9.68;4.13;;;;;;;48.27;10.23;99945.03;4972509;28;20530;-72
2022/08/15 07:42:57;;;;;;;3.53;2.67;;;;;;;49.24;9.79;99965.16;4972292;28;20058;-72
2022/08/15 07:45:32;;;;;;;8.52;2.08;;;;;;;49.02;8.65;99957.88;5064025;28;20056;-71
2022/08/15 07:48:28;;;;;;;6.80;2.40;;;;;;;49.92;8.42;99941.44;5073249;28;20074;-71
2022/08/15 07:51:14;;;;;;;6.97;2.47;;;;;;;50.48;7.89;99952.69;5073428;28;20059;-69
2022/08/15 07:53:55;;;;;;;4.63;2.33;;;;;;;50.26;8.17;99951.41;5072926;28;20078;-69
2022/08/15 07:56:24;;;;;;;5.60;2.53;;;;;;;51.24;7.58;99938.97;5073701;28;20048;-69
2022/08/15 07:59:22;;;;;;;10.00;6.20;;;;;;;52.12;7.08;99946.78;5039030;28;20045;-69
2022/08/15 08:02:22;;;;;;;5.47;2.33;;;;;;;52.90;6.71;99939.97;5052989;28;20091;-78
2022/08/15 08:05:02;;;;;;;3.50;2.38;;;;;;;52.32;6.28;99966.34;5053293;28;20093;-79
2022/08/15 08:07:44;;;;;;;4.20;2.63;;;;;;;51.25;7.06;99952.38;5052929;28;20041;-79
2022/08/15 08:10:46;;;;;;;6.30;2.70;;;;;;;48.12;8.51;99942.78;5053068;28;20052;-77
2022/08/15 08:13:48;;;;;;;4.30;2.70;;;;;;;47.52;9.32;99948.28;5052919;28;20110;-78
2022/08/15 08:16:48;;;;;;;7.72;2.30;;;;;;;49.90;8.05;99941.25;5030676;28;20148;-78
2022/08/15 08:19:24;;;;;;;8.27;3.00;;;;;;;51.98;6.84;99945.59;5052445;28;20515;-77
2022/08/15 08:22:07;;;;;;;6.97;3.73;;;;;;;52.71;6.83;99940.69;5034589;28;20175;-77
2022/08/15 08:24:54;;;;;;;4.88;2.42;;;;;;;54.22;5.86;99943.97;5053016;28;20298;-78
2022/08/15 08:27:24;;;;;;;6.72;2.13;;;;;;;54.95;5.56;99942.09;5052401;28;20041;-78
2022/08/15 08:30:11;;;;;;;4.45;2.42;;;;;;;52.81;5.66;99944.47;5052591;28;20516;-77
2022/08/15 08:33:19;;;;;;;2.70;1.90;;;;;;;49.15;7.71;99945.06;5052455;28;20048;-78
2022/08/15 08:35:54;;;;;;;6.05;2.03;;;;;;;45.96;9.67;99944.59;5052328;28;20061;-78
2022/08/15 08:38:35;;;;;;;14.10;2.28;;;;;;;43.85;11.23;99930.25;5052077;28;20060;-78
2022/08/15 08:42:04;;;;;;;7.63;2.60;;;;;;;41.75;12.84;99923.19;5052541;28;20114;-78
2022/08/15 08:44:54;;;;;;;7.55;2.80;;;;;;;40.55;14.11;99930.75;5025077;28;20053;-70
2022/08/15 08:48:05;;;;;;;4.78;2.72;;;;;;;40.34;14.31;99926.47;5051846;28;20483;-71
2022/08/15 08:50:56;;;;;;;7.28;2.80;;;;;;;40.90;13.74;99916.41;5052299;28;20454;-71
2022/08/15 08:53:43;;;;;;;9.88;2.50;;;;;;;41.35;13.63;99929.66;5052045;28;20510;-71
2022/08/15 08:56:21;;;;;;;5.20;2.55;;;;;;;43.82;12.07;99926.28;5034623;28;20056;-71
2022/08/15 08:59:08;;;;;;;10.32;2.72;;;;;;;47.20;9.70;99927.19;5071875;28;20131;-72
2022/08/15 09:01:37;;;;;;;13.32;3.22;;;;;;;50.51;7.93;99921.84;5072233;28;20060;-71
2022/08/15 09:04:22;;;;;;;7.63;2.65;;;;;;;53.50;5.87;99927.84;5072483;28;20051;-71
2022/08/15 09:06:52;;;;;;;3.05;2.00;;;;;;;54.08;5.67;99928.72;5072097;28;20504;-72
2022/08/15 09:09:31;;;;;;;7.38;1.83;;;;;;;51.47;6.70;99927.69;5071924;28;20064;-71
2022/08/15 09:15:12;;;;;;;7.60;1.95;;;;;;;50.12;6.62;99925.59;5072223;28;20052;-71
2022/08/15 09:17:47;;;;;;;3.40;2.30;;;;;;;52.75;5.11;99917.22;5072092;28;20037;-71
2022/08/15 09:20:35;;;;;;;8.75;3.65;;;;;;;52.84;5.07;99913.50;5071901;28;20072;-71
2022/08/15 09:23:11;;;;;;;10.40;2.08;;;;;;;47.97;7.52;99921.28;5071017;28;20036;-71
2022/08/15 09:25:47;;;;;;;;;;;;;;;46.77;8.29;99924.81;5069922;28;20496;-69
2022/08/15 09:28:34;;;;;;;9.43;2.80;;;;;;;46.42;8.37;99930.47;5056295;28;19931;-69
2022/08/15 09:31:16;;;;;;;3.55;2.13;;;;;;;44.86;9.58;99922.38;5073470;28;20420;-69
2022/08/15 09:34:04;;;;;;;4.07;2.30;;;;;;;43.58;10.15;99914.63;5070873;28;20076;-70
2022/08/15 09:36:56;;;;;;;6.28;2.17;;;;;;;43.66;10.05;99908.91;5071073;28;20102;-70
2022/08/15 09:39:46;;;;;;;5.45;2.20;;;;;;;45.81;8.88;99914.97;5072370;28;20063;-69
2022/08/15 09:42:20;;;;;;;19.00;8.68;;;;;;;48.14;7.69;99901.66;5074869;28;20048;-69
2022/08/15 09:45:32;;;;;;;3.53;2.20;;;;;;;44.54;9.58;99893.81;5074722;28;20048;-69
2022/08/15 09:49:02;;;;;;;5.55;2.58;;;;;;;41.31;11.96;99906.56;5074754;28;20040;-69
2022/08/15 09:52:18;;;;;;;5.13;2.53;;;;;;;39.30;12.98;99907.97;5023861;28;20060;-69
2022/08/15 09:55:17;;;;;;;5.60;2.30;;;;;;;37.82;14.37;99913.97;5074113;28;20136;-69
2022/08/15 09:57:52;;;;;;;4.57;2.50;;;;;;;36.96;15.14;99909.28;5074023;28;20053;-69
2022/08/15 10:00:38;;;;;;;14.75;2.90;;;;;;;35.79;15.76;99906.31;5072742;28;20052;-72
2022/08/15 10:03:24;;;;;;;8.20;2.40;;;;;;;35.58;16.64;99907.47;5069907;28;20048;-72
2022/08/15 10:06:06;;;;;;;9.82;2.47;;;;;;;35.54;16.14;99894.47;5074106;28;20052;-67
2022/08/15 10:08:52;;;;;;;8.82;4.32;;;;;;;35.40;16.26;99890.25;5074280;28;20040;-69
2022/08/15 10:11:38;;;;;;;12.95;3.38;;;;;;;35.39;16.32;99897.31;5074862;28;20052;-68
2022/08/15 10:14:39;;;;;;;11.85;3.67;;;;;;;35.29;17.16;99897.84;5073617;28;20056;-69
2022/08/15 10:17:40;;;;;;;20.38;5.63;;;;;;;34.76;17.58;99903.44;5072571;28;20537;-69
2022/08/15 10:20:27;;;;;;;8.45;4.97;;;;;;;34.25;17.95;99893.94;5045458;28;20057;-71
2022/08/15 10:23:00;;;;;;;8.23;4.55;;;;;;;33.80;18.43;99894.78;5073864;28;20139;-69
2022/08/15 10:25:33;;;;;;;12.05;4.38;;;;;;;33.35;19.24;99906.28;5065844;28;20508;-68
2022/08/15 10:28:07;;;;;;;7.22;4.45;;;;;;;32.79;19.96;99906.59;5072681;28;20121;-68
2022/08/15 10:31:02;;;;;;;10.07;4.40;;;;;;;32.31;20.90;99901.53;5074000;28;20060;-68
2022/08/15 10:33:33;;;;;;;8.48;4.93;;;;;;;32.10;21.55;99893.72;5072874;28;20068;-69
2022/08/15 10:36:14;;;;;;;11.18;5.82;;;;;;;32.04;21.54;99900.56;5057651;28;20531;-68
2022/08/15 10:39:16;;;;;;;24.02;6.30;;;;;;;31.80;22.39;99903.09;5064915;28;20055;-68
2022/08/15 10:42:17;;;;;;;12.15;7.55;;;;;;;31.77;21.94;99904.03;5074132;28;20404;-68
2022/08/15 10:45:31;;;;;;;10.50;6.85;;;;;;;31.52;22.11;99896.28;5071681;28;20052;-69
2022/08/15 10:48:13;;;;;;;20.75;9.13;;;;;;;31.58;22.47;99896.50;5066317;28;20106;-69
2022/08/15 10:51:34;;;;;;;19.10;10.18;;;;;;;31.34;22.51;99881.75;5070400;28;20512;-68
2022/08/15 10:54:27;;;;;;;24.15;14.43;;;;;;;31.27;22.58;99890.63;5060459;28;20044;-70
2022/08/15 10:57:08;;;;;;;20.55;10.90;;;;;;;31.13;22.80;99887.41;5066723;28;20083;-67
2022/08/15 10:59:41;;;;;;;30.67;11.25;;;;;;;31.21;22.79;99883.03;5073030;28;20523;-71
2022/08/15 11:02:35;;;;;;;19.98;11.18;;;;;;;31.18;23.17;99872.47;5073286;28;20123;-68
2022/08/15 11:05:13;;;;;;;20.10;11.65;;;;;;;31.09;23.28;99898.25;5067519;28;20092;-73
2022/08/15 11:07:49;;;;;;;20.77;13.80;;;;;;;30.80;23.72;99888.97;5073013;28;20523;-67
2022/08/15 11:10:28;;;;;;;23.98;16.95;;;;;;;30.73;23.79;99875.59;5073601;28;20051;-68
2022/08/15 11:13:05;;;;;;;23.80;15.80;;;;;;;30.93;23.80;99881.16;5072311;28;20048;-69
2022/08/15 11:15:56;;;;;;;33.13;20.13;;;;;;;30.97;23.48;99879.75;5072241;28;20121;-67
2022/08/15 11:18:35;;;;;;;35.38;23.10;;;;;;;30.90;23.31;99900.09;5071000;28;20493;-72
2022/08/15 11:21:42;;;;;;;57.45;37.50;;;;;;;30.64;23.53;99889.84;5069569;28;20040;-69
2022/08/15 11:24:10;;;;;;;38.55;22.83;;;;;;;30.48;24.18;99889.16;5058338;28;20140;-71
2022/08/15 11:26:45;;;;;;;37.95;18.58;;;;;;;30.69;23.95;99897.09;5070178;28;20110;-72
2022/08/15 11:29:24;;;;;;;32.15;18.67;;;;;;;30.71;24.04;99888.81;5072065;28;20048;-69
2022/08/15 11:31:57;;;;;;;35.15;22.20;;;;;;;30.64;24.46;99883.31;5072410;28;20056;-73
2022/08/15 11:34:46;;;;;;;30.75;19.95;;;;;;;30.65;23.72;99873.44;5071653;28;20105;-75
2022/08/15 11:37:20;;;;;;;32.13;20.65;;;;;;;30.50;23.66;99883.78;5072305;28;20054;-71
2022/08/15 11:40:28;;;;;;;31.48;19.15;;;;;;;30.21;24.16;99895.34;5065633;28;20102;-71
2022/08/15 11:42:58;;;;;;;32.80;21.85;;;;;;;30.11;24.02;99873.50;5070436;28;20567;-69
2022/08/15 11:45:46;;;;;;;33.20;22.02;;;;;;;30.13;24.16;99882.44;5067667;28;20048;-71
2022/08/15 11:48:22;;;;;;;35.90;23.80;;;;;;;30.05;24.37;99881.84;5068887;28;20507;-72
2022/08/15 11:51:14;;;;;;;40.10;24.08;;;;;;;29.91;24.93;99893.78;5070773;28;20056;-71
2022/08/15 11:54:17;;;;;;;48.70;30.15;;;;;;;29.76;24.80;99877.44;5068418;28;20072;-71
2022/08/15 11:57:06;;;;;;;38.28;23.25;;;;;;;29.75;24.66;99876.63;5068671;28;20495;-72
2022/08/15 12:00:22;;;;;;;44.35;24.02;;;;;;;29.71;25.13;99883.72;5068246;28;20578;-73
2022/08/15 12:02:52;;;;;;;39.55;25.42;;;;;;;29.63;25.31;99871.66;5070510;28;20083;-69
2022/08/15 12:05:36;;;;;;;38.97;24.65;;;;;;;29.70;25.24;99864.91;5070133;28;20056;-70
2022/08/15 12:08:09;;;;;;;34.10;20.00;;;;;;;29.75;25.10;99870.88;5072952;28;20122;-72
2022/08/15 12:11:14;;;;;;;34.53;16.27;;;;;;;29.80;25.03;99876.06;5070081;28;20048;-72
2022/08/15 12:14:01;;;;;;;30.05;15.82;;;;;;;29.67;25.39;99866.63;5066785;28;20045;-74
2022/08/15 12:16:45;;;;;;;22.33;14.45;;;;;;;29.53;25.11;99852.66;5068637;28;20045;-68
2022/08/15 12:19:29;;;;;;;25.90;16.13;;;;;;;29.50;25.15;99856.44;5071289;28;20450;-76
2022/08/15 12:22:06;;;;;;;24.38;14.65;;;;;;;29.53;25.33;99854.72;5070451;28;20048;-72
2022/08/15 12:24:56;;;;;;;25.52;13.43;;;;;;;29.53;25.68;99846.94;5067108;28;20067;-70
2022/08/15 12:27:25;;;;;;;18.45;11.75;;;;;;;29.64;25.75;99852.38;5070563;28;20048;-71
2022/08/15 12:29:59;;;;;;;22.90;9.27;;;;;;;29.58;25.80;99843.53;5059588;28;20504;-70
2022/08/15 12:32:26;;;;;;;19.50;9.38;;;;;;;29.57;25.74;99849.72;5068045;28;20075;-70
2022/08/15 12:35:05;;;;;;;30.85;8.95;;;;;;;29.57;25.83;99843.97;5055210;28;20478;-70
2022/08/15 12:37:50;;;;;;;13.65;8.30;;;;;;;29.55;26.22;99835.81;5055639;28;20130;-70
2022/08/15 12:40:19;;;;;;;14.75;7.40;;;;;;;29.64;26.10;99843.78;5068612;28;20083;-68